Time;durP1;ratioP1;P1;durP2;ratioP2;P2;SDS_P1;SDS_P2;PMS_P1;PMS_P2;Temp;Humidity;BMP_temperature;BMP_pressure;BME280_temperature;BME280_humidity;BME280_pressure;Samples;Min_cycle;Max_cycle;Signal;HPM_P1;HPM_P2
2022/10/30 00:00:42;;;;;;;17.58;7.07;;;;;;;15.92;73.34;101403.38;3580481;40;20362;-59
2022/10/30 00:03:13;;;;;;;14.93;6.88;;;;;;;16.08;73.69;101435.63;3583131;40;20057;-60
2022/10/30 00:05:45;;;;;;;14.88;6.38;;;;;;;15.87;73.38;101401.97;3577093;40;20056;-60
2022/10/30 00:08:13;;;;;;;10.18;6.45;;;;;;;16.05;73.01;101438.56;3578088;40;20060;-60
2022/10/30 00:10:40;;;;;;;17.00;7.00;;;;;;;15.98;73.49;101426.41;3580460;40;20060;-60
2022/10/30 00:13:06;;;;;;;12.27;7.15;;;;;;;16.01;73.47;101443.31;3579652;40;20054;-60
2022/10/30 00:15:32;;;;;;;12.98;7.32;;;;;;;15.99;74.00;101436.31;3577920;40;20100;-60
2022/10/30 00:17:57;;;;;;;14.20;7.05;;;;;;;15.94;73.33;101441.19;3582847;40;20639;-60
2022/10/30 00:20:23;;;;;;;10.27;6.72;;;;;;;15.91;73.63;101434.16;3575250;40;20069;-60
2022/10/30 00:22:49;;;;;;;13.30;6.97;;;;;;;15.87;73.29;101445.34;3576932;40;20059;-60
2022/10/30 00:25:14;;;;;;;12.75;7.15;;;;;;;15.81;73.90;101445.81;3578923;40;20049;-60
2022/10/30 00:27:40;;;;;;;16.33;7.10;;;;;;;15.76;74.46;101438.00;3583577;40;20059;-60
2022/10/30 00:30:06;;;;;;;13.23;6.53;;;;;;;15.73;74.39;101438.22;3577284;40;20052;-60
2022/10/30 00:32:32;;;;;;;15.43;6.43;;;;;;;15.70;74.43;101441.19;3575326;40;20059;-58
2022/10/30 00:34:58;;;;;;;21.98;7.72;;;;;;;15.63;74.78;101429.88;3576415;40;20262;-60
2022/10/30 00:37:23;;;;;;;16.88;8.00;;;;;;;15.62;74.61;101435.41;3574734;40;20052;-59
2022/10/30 00:39:49;;;;;;;14.38;7.10;;;;;;;15.59;74.55;101425.66;3579401;40;20477;-59
2022/10/30 00:42:16;;;;;;;15.02;6.72;;;;;;;15.57;75.40;101430.31;3581233;40;20048;-59
2022/10/30 00:44:44;;;;;;;18.60;7.03;;;;;;;15.60;74.79;101426.53;3582147;40;20052;-59
2022/10/30 00:47:36;;;;;;;14.77;6.80;;;;;;;15.60;74.90;101434.66;3575647;40;20060;-60
2022/10/30 00:50:26;;;;;;;15.82;6.80;;;;;;;15.59;74.95;101424.81;3574916;40;20324;-58
2022/10/30 00:53:11;;;;;;;13.52;6.63;;;;;;;15.55;74.87;101419.59;3579095;40;20068;-59
2022/10/30 00:55:45;;;;;;;12.38;6.47;;;;;;;15.57;75.16;101424.91;3579941;40;20048;-59
2022/10/30 00:58:18;;;;;;;12.93;7.03;;;;;;;15.55;75.48;101426.88;3580400;40;20067;-60
2022/10/30 01:00:56;;;;;;;14.48;6.97;;;;;;;15.50;75.19;101429.91;3581290;40;20052;-59
2022/10/30 01:03:26;;;;;;;14.63;7.35;;;;;;;15.48;75.61;101426.47;3577524;40;20092;-60
2022/10/30 01:05:59;;;;;;;14.70;7.50;;;;;;;15.45;75.34;101425.81;3576717;40;20033;-59
2022/10/30 01:08:25;;;;;;;13.48;6.88;;;;;;;15.43;75.21;101419.63;3580019;40;20060;-59
2022/10/30 01:10:51;;;;;;;16.48;7.43;;;;;;;15.38;76.03;101425.41;3579164;40;20063;-59
2022/10/30 01:13:21;;;;;;;16.13;7.25;;;;;;;15.33;75.61;101428.44;3579043;40;20067;-59
2022/10/30 01:16:40;;;;;;;18.63;7.20;;;;;;;15.30;75.24;101430.50;3580243;40;20358;-59
2022/10/30 01:19:35;;;;;;;18.20;6.85;;;;;;;15.23;75.51;101431.91;3577589;40;20053;-59
2022/10/30 01:22:38;;;;;;;12.80;6.97;;;;;;;15.19;75.61;101428.56;3578297;40;20638;-60
2022/10/30 01:25:55;;;;;;;14.68;7.00;;;;;;;15.06;76.40;101420.47;3565296;40;20052;-59
2022/10/30 01:29:09;;;;;;;17.05;7.13;;;;;;;15.09;76.63;101436.47;3570607;40;20173;-59
2022/10/30 01:32:03;;;;;;;15.10;7.53;;;;;;;15.09;76.70;101431.03;3557736;40;20070;-59
2022/10/30 01:35:13;;;;;;;15.48;7.22;;;;;;;15.08;77.85;101439.28;3571893;40;20059;-58
2022/10/30 01:37:53;;;;;;;15.05;7.50;;;;;;;15.06;77.25;101431.28;3577797;40;20607;-59
2022/10/30 01:40:20;;;;;;;16.05;7.50;;;;;;;15.07;77.82;101434.84;3578425;40;20056;-59
2022/10/30 01:42:55;;;;;;;12.48;6.90;;;;;;;15.04;77.38;101433.22;3578080;40;20125;-59
2022/10/30 01:45:34;;;;;;;15.48;7.22;;;;;;;15.04;77.43;101438.66;3580511;40;20358;-60
2022/10/30 01:48:47;;;;;;;14.25;7.40;;;;;;;15.01;77.42;101433.44;3580886;40;20061;-59
2022/10/30 01:51:45;;;;;;;16.23;7.60;;;;;;;15.01;77.67;101438.00;3574672;40;20048;-60
2022/10/30 01:54:51;;;;;;;15.18;7.32;;;;;;;14.97;77.68;101440.06;3575840;40;20134;-59
2022/10/30 01:57:49;;;;;;;15.27;7.68;;;;;;;14.96;77.08;101445.56;3579556;40;20346;-61
2022/10/30 02:00:18;;;;;;;11.88;7.57;;;;;;;14.96;77.26;101451.84;3579930;40;20056;-59
2022/10/30 02:02:45;;;;;;;16.35;7.22;;;;;;;14.92;77.24;101447.63;3580669;40;20118;-58
2022/10/30 02:05:32;;;;;;;14.93;7.65;;;;;;;14.88;77.72;101454.25;3580421;40;20118;-59
2022/10/30 02:07:58;;;;;;;13.40;7.63;;;;;;;14.87;77.30;101444.38;3576543;40;20064;-59
2022/10/30 02:10:24;;;;;;;12.23;7.20;;;;;;;14.85;77.82;101459.88;3567789;40;20045;-59
2022/10/30 02:12:50;;;;;;;14.40;7.15;;;;;;;14.84;77.80;101463.53;3577662;40;20125;-59
2022/10/30 02:15:16;;;;;;;14.77;7.53;;;;;;;14.79;77.99;101450.31;3579868;40;20068;-59
2022/10/30 02:17:42;;;;;;;14.48;7.20;;;;;;;14.70;78.07;101441.97;3581172;40;20121;-60
2022/10/30 02:20:18;;;;;;;12.07;7.47;;;;;;;14.74;78.05;101444.34;3582130;40;20057;-60
2022/10/30 02:22:45;;;;;;;13.85;7.45;;;;;;;14.74;78.30;101451.63;3578329;40;20065;-60
2022/10/30 02:25:10;;;;;;;12.27;6.75;;;;;;;14.74;78.19;101452.47;3579556;40;20098;-59
2022/10/30 02:27:36;;;;;;;12.52;6.90;;;;;;;14.69;78.04;101449.25;3580490;40;20355;-59
2022/10/30 02:30:03;;;;;;;13.52;7.50;;;;;;;14.72;78.16;101464.41;3580712;40;20057;-60
2022/10/30 02:32:28;;;;;;;20.65;7.70;;;;;;;14.71;78.27;101457.22;3582437;40;20269;-60
2022/10/30 02:34:54;;;;;;;15.95;7.20;;;;;;;14.67;78.10;101447.59;3578747;40;20059;-59
2022/10/30 02:37:20;;;;;;;17.15;8.15;;;;;;;14.68;78.36;101458.31;3579661;40;20063;-60
2022/10/30 02:39:45;;;;;;;14.40;7.10;;;;;;;14.69;78.65;101456.50;3583112;40;20052;-59
2022/10/30 02:42:11;;;;;;;13.75;7.30;;;;;;;14.53;78.34;101438.59;3569254;40;20409;-59
2022/10/30 02:44:36;;;;;;;14.90;7.25;;;;;;;14.67;78.39;101462.00;3578207;40;20133;-59
2022/10/30 02:47:02;;;;;;;17.10;8.32;;;;;;;14.62;78.83;101459.63;3580012;40;20056;-60
2022/10/30 02:49:27;;;;;;;13.38;7.13;;;;;;;14.64;78.74;101467.63;3579755;40;20079;-59
2022/10/30 02:51:53;;;;;;;14.30;6.90;;;;;;;14.65;78.15;101471.19;3580424;40;20048;-60
2022/10/30 02:54:19;;;;;;;17.92;7.00;;;;;;;14.61;78.24;101463.28;3579608;40;20390;-60
2022/10/30 02:56:44;;;;;;;11.88;7.38;;;;;;;14.62;78.31;101461.47;3577978;40;20249;-59
2022/10/30 02:59:10;;;;;;;12.68;7.30;;;;;;;14.61;78.99;101460.56;3578276;40;20064;-60
2022/10/30 03:01:35;;;;;;;13.00;6.72;;;;;;;14.61;78.94;101459.72;3579819;40;20064;-60
2022/10/30 03:04:01;;;;;;;13.85;7.03;;;;;;;14.60;78.90;101466.09;3580528;40;20427;-58
2022/10/30 03:06:26;;;;;;;15.75;7.57;;;;;;;14.57;78.20;101453.66;3577621;40;20056;-59
2022/10/30 03:08:52;;;;;;;16.73;7.45;;;;;;;14.55;78.43;101452.88;3579494;40;20051;-60
2022/10/30 03:11:19;;;;;;;16.52;7.60;;;;;;;14.34;78.80;101424.56;3578893;40;20275;-59
2022/10/30 03:13:47;;;;;;;13.27;7.65;;;;;;;14.52;78.66;101447.66;3575838;40;20063;-59
2022/10/30 03:16:23;;;;;;;18.92;7.70;;;;;;;14.52;78.68;101452.22;3579316;40;20052;-60
2022/10/30 03:18:50;;;;;;;13.95;7.43;;;;;;;14.53;79.06;101448.56;3580594;40;20391;-59
2022/10/30 03:21:21;;;;;;;19.60;7.32;;;;;;;14.53;79.84;101444.00;3575109;40;20055;-59
2022/10/30 03:23:49;;;;;;;18.38;7.43;;;;;;;14.53;79.55;101446.72;3579778;40;20268;-60
2022/10/30 03:26:16;;;;;;;13.00;7.47;;;;;;;14.52;79.65;101442.25;3570430;40;20052;-60
2022/10/30 03:28:43;;;;;;;16.27;7.80;;;;;;;14.54;79.20;101453.84;3580607;40;20383;-59
2022/10/30 03:31:16;;;;;;;12.50;7.22;;;;;;;14.55;79.22;101452.88;3581053;40;20064;-60
2022/10/30 03:33:43;;;;;;;17.20;7.75;;;;;;;14.58;80.18;101454.50;3579916;40;20088;-59
2022/10/30 03:36:12;;;;;;;17.00;7.63;;;;;;;14.61;79.53;101451.59;3570065;40;20284;-60
2022/10/30 03:38:38;;;;;;;10.85;7.53;;;;;;;14.63;79.96;101450.53;3581196;40;20045;-59
2022/10/30 03:41:05;;;;;;;20.42;7.60;;;;;;;14.70;79.64;101455.50;3578957;40;20063;-58
2022/10/30 03:43:31;;;;;;;13.00;7.03;;;;;;;14.70;78.52;101445.56;3580429;40;20435;-59
2022/10/30 03:45:57;;;;;;;11.75;7.22;;;;;;;14.68;78.81;101447.47;3577882;40;20363;-59
2022/10/30 03:48:26;;;;;;;13.00;7.20;;;;;;;14.68;78.67;101462.84;3579453;40;20068;-58
2022/10/30 03:50:54;;;;;;;9.48;6.88;;;;;;;14.66;79.02;101457.56;3582870;40;20432;-60
2022/10/30 03:53:22;;;;;;;12.15;7.50;;;;;;;14.54;78.73;101440.31;3581010;40;20060;-58
2022/10/30 03:55:49;;;;;;;16.48;7.28;;;;;;;14.61;79.29;101463.28;3578953;40;20049;-58
2022/10/30 03:58:14;;;;;;;11.50;7.50;;;;;;;14.58;78.72;101458.06;3578504;40;20122;-60
2022/10/30 04:00:40;;;;;;;13.70;7.82;;;;;;;14.55;79.24;101455.56;3579714;40;20064;-60
2022/10/30 04:03:09;;;;;;;16.65;7.68;;;;;;;14.52;79.41;101473.88;3578668;40;20056;-61
2022/10/30 04:05:36;;;;;;;12.25;7.25;;;;;;;14.51;80.00;101464.03;3576993;40;20080;-60
2022/10/30 04:08:09;;;;;;;16.90;7.85;;;;;;;14.34;79.31;101440.81;3581837;40;20059;-61
2022/10/30 04:10:35;;;;;;;12.93;7.60;;;;;;;14.43;79.55;101472.66;3580442;40;20061;-60
2022/10/30 04:13:06;;;;;;;13.38;7.40;;;;;;;14.40;79.95;101475.56;3580177;40;20078;-59
2022/10/30 04:15:33;;;;;;;16.33;7.35;;;;;;;14.37;79.55;101475.75;3577671;40;20058;-61
2022/10/30 04:17:59;;;;;;;15.68;7.90;;;;;;;14.31;80.10;101465.34;3578604;40;20075;-60
2022/10/30 04:20:26;;;;;;;12.27;7.15;;;;;;;14.29;80.06;101461.88;3577452;40;20067;-61
2022/10/30 04:23:04;;;;;;;14.27;7.75;;;;;;;14.28;80.56;101460.16;3577926;40;20126;-60
2022/10/30 04:25:33;;;;;;;13.88;7.45;;;;;;;14.28;79.77;101461.00;3576142;40;20045;-61
2022/10/30 04:27:59;;;;;;;11.88;6.95;;;;;;;14.14;80.08;101443.03;3582102;40;20060;-61
2022/10/30 04:30:26;;;;;;;11.50;7.30;;;;;;;14.23;80.23;101464.97;3578244;40;20532;-60
2022/10/30 04:32:56;;;;;;;13.15;7.38;;;;;;;14.26;80.04;101470.19;3581556;40;20417;-61
2022/10/30 04:35:26;;;;;;;14.18;7.22;;;;;;;14.26;80.32;101471.06;3578600;40;20099;-61
2022/10/30 04:38:05;;;;;;;23.13;11.75;;;;;;;14.27;80.46;101462.00;3582453;40;20059;-60
2022/10/30 04:40:35;;;;;;;16.15;9.43;;;;;;;14.26;81.22;101451.25;3576759;40;20057;-61
2022/10/30 04:43:02;;;;;;;16.63;7.85;;;;;;;14.10;81.70;101417.13;3580253;40;20060;-61
2022/10/30 04:45:28;;;;;;;12.52;7.70;;;;;;;14.33;81.62;101452.56;3578275;40;20066;-60
2022/10/30 04:48:02;;;;;;;16.10;8.05;;;;;;;14.36;81.20;101444.25;3577605;40;20056;-57
2022/10/30 04:50:29;;;;;;;13.15;7.38;;;;;;;14.35;81.53;101429.00;3578016;40;20075;-58
2022/10/30 04:53:07;;;;;;;14.25;7.57;;;;;;;14.22;80.89;101401.94;3581053;40;20386;-58
2022/10/30 04:55:33;;;;;;;15.07;7.65;;;;;;;14.32;81.07;101413.84;3580459;40;20048;-61
2022/10/30 04:58:01;;;;;;;13.65;7.32;;;;;;;14.47;81.15;101427.31;3579281;40;20104;-61
2022/10/30 05:00:28;;;;;;;12.10;7.90;;;;;;;14.50;80.86;101438.78;3577019;40;20496;-61
2022/10/30 05:02:54;;;;;;;12.55;7.00;;;;;;;14.52;80.14;101433.28;3578233;40;20651;-58
2022/10/30 05:05:20;;;;;;;13.13;7.75;;;;;;;14.53;79.85;101433.19;3580031;40;20055;-58
2022/10/30 05:07:45;;;;;;;17.38;8.05;;;;;;;14.52;80.42;101431.44;3581954;40;20072;-58
2022/10/30 05:10:17;;;;;;;16.45;7.80;;;;;;;14.50;80.73;101430.66;3578424;40;20063;-58
2022/10/30 05:12:44;;;;;;;14.85;7.68;;;;;;;14.39;80.47;101420.56;3578213;40;20055;-61
2022/10/30 05:15:12;;;;;;;15.15;7.53;;;;;;;14.49;80.07;101437.03;3578718;40;20389;-59
2022/10/30 05:17:38;;;;;;;14.38;8.07;;;;;;;14.35;80.10;101412.78;3581975;40;20052;-60
2022/10/30 05:20:06;;;;;;;11.52;6.97;;;;;;;14.44;79.99;101424.81;3580951;40;20104;-60
2022/10/30 05:22:32;;;;;;;22.10;7.97;;;;;;;14.39;80.05;101425.97;3578481;40;20060;-60
2022/10/30 05:24:57;;;;;;;16.55;7.47;;;;;;;14.35;79.55;101439.81;3579220;40;20052;-60
2022/10/30 05:27:23;;;;;;;19.17;7.95;;;;;;;14.31;79.91;101441.00;3576810;40;20104;-61
2022/10/30 05:29:48;;;;;;;12.48;6.90;;;;;;;14.26;80.22;101440.44;3578322;40;20064;-60
2022/10/30 05:32:14;;;;;;;9.93;7.15;;;;;;;14.20;80.33;101441.72;3576785;40;20323;-60
2022/10/30 05:34:40;;;;;;;14.65;7.72;;;;;;;14.15;79.90;101455.56;3579139;40;20125;-60
2022/10/30 05:37:05;;;;;;;12.55;7.45;;;;;;;14.12;79.93;101454.91;3582264;40;20059;-57
2022/10/30 05:39:31;;;;;;;11.07;7.47;;;;;;;14.10;80.83;101446.88;3576745;40;20314;-57
2022/10/30 05:41:56;;;;;;;11.52;8.20;;;;;;;14.08;80.93;101450.66;3577931;40;20291;-56
2022/10/30 05:44:22;;;;;;;13.77;8.00;;;;;;;14.04;80.38;101446.41;3575510;40;20068;-59
2022/10/30 05:46:47;;;;;;;14.75;8.23;;;;;;;14.00;80.86;101440.34;3581912;40;20475;-59
2022/10/30 05:49:13;;;;;;;16.35;8.77;;;;;;;13.97;80.38;101447.81;3579697;40;20088;-59
2022/10/30 05:51:38;;;;;;;16.50;10.35;;;;;;;13.58;80.57;101396.28;3579647;40;20062;-59
2022/10/30 05:54:04;;;;;;;16.10;9.57;;;;;;;13.91;80.34;101451.78;3581491;40;20102;-59
2022/10/30 05:56:30;;;;;;;19.73;10.32;;;;;;;13.89;80.46;101437.47;3579039;40;20069;-60
2022/10/30 05:58:55;;;;;;;13.85;8.68;;;;;;;13.85;80.38;101441.34;3579255;40;20048;-59
2022/10/30 06:01:21;;;;;;;16.35;9.63;;;;;;;13.79;81.13;101436.34;3579689;40;20052;-61
2022/10/30 06:03:47;;;;;;;16.80;9.40;;;;;;;13.82;82.08;101442.44;3582027;40;20063;-59
2022/10/30 06:06:12;;;;;;;18.77;8.48;;;;;;;13.77;81.58;101454.53;3579511;40;20052;-59
2022/10/30 06:08:38;;;;;;;18.70;8.45;;;;;;;13.76;81.51;101450.06;3579719;40;20055;-59
2022/10/30 06:11:03;;;;;;;18.52;8.90;;;;;;;13.72;81.35;101445.84;3578351;40;20057;-60
2022/10/30 06:13:29;;;;;;;13.57;8.05;;;;;;;13.45;80.96;101409.72;3577759;40;20063;-61
2022/10/30 06:15:55;;;;;;;13.35;8.10;;;;;;;13.65;81.16;101457.03;3580683;40;20055;-59
2022/10/30 06:18:21;;;;;;;16.05;8.68;;;;;;;13.60;81.08;101451.06;3576198;40;20093;-60
2022/10/30 06:20:47;;;;;;;22.50;10.23;;;;;;;13.56;81.52;101441.44;3579454;40;20052;-59
2022/10/30 06:23:14;;;;;;;16.85;8.45;;;;;;;13.55;82.26;101444.25;3579117;40;20284;-60
2022/10/30 06:25:40;;;;;;;16.77;8.27;;;;;;;13.25;82.80;101396.63;3581325;40;20047;-60
2022/10/30 06:28:06;;;;;;;17.08;8.88;;;;;;;13.47;83.14;101440.19;3571003;40;21629;-58
2022/10/30 06:30:32;;;;;;;20.80;11.93;;;;;;;13.47;83.14;101442.00;3580111;40;20391;-59
2022/10/30 06:33:04;;;;;;;15.68;9.57;;;;;;;13.47;83.44;101433.91;3581345;40;20056;-59
2022/10/30 06:35:30;;;;;;;16.88;9.55;;;;;;;13.44;83.27;101439.50;3576925;40;20049;-59
2022/10/30 06:37:59;;;;;;;19.00;10.00;;;;;;;13.45;83.55;101443.97;3579468;40;20048;-59
2022/10/30 06:40:26;;;;;;;15.73;10.00;;;;;;;13.45;82.50;101441.25;3578862;40;20063;-60
2022/10/30 06:42:53;;;;;;;18.77;10.00;;;;;;;13.46;82.85;101440.28;3579288;40;20084;-58
2022/10/30 06:45:21;;;;;;;18.27;9.65;;;;;;;13.43;83.09;101443.19;3576602;40;20085;-59
2022/10/30 06:47:48;;;;;;;15.85;8.88;;;;;;;13.36;83.14;101439.16;3577403;40;20136;-60
2022/10/30 06:50:19;;;;;;;16.00;8.27;;;;;;;13.40;83.01;101446.94;3578945;40;20041;-59
2022/10/30 06:52:45;;;;;;;16.27;8.77;;;;;;;13.36;82.81;101447.25;3577417;40;20088;-59
2022/10/30 06:55:11;;;;;;;14.52;8.02;;;;;;;13.37;83.52;101440.88;3565977;40;20350;-60
2022/10/30 06:57:37;;;;;;;16.35;8.77;;;;;;;13.19;83.12;101396.97;3575238;40;20056;-59
2022/10/30 07:00:06;;;;;;;13.05;8.25;;;;;;;13.28;82.43;101415.31;3579753;40;20056;-60
2022/10/30 07:02:32;;;;;;;19.40;8.45;;;;;;;13.39;83.05;101422.75;3577806;40;20064;-59
2022/10/30 07:04:58;;;;;;;15.18;8.50;;;;;;;13.36;83.50;101423.81;3576769;40;20075;-59
2022/10/30 07:07:24;;;;;;;19.05;8.88;;;;;;;13.39;83.82;101418.22;3576502;40;20049;-59
2022/10/30 07:09:49;;;;;;;17.77;9.10;;;;;;;13.38;84.17;101424.59;3576631;40;20415;-60
2022/10/30 07:12:15;;;;;;;16.95;8.68;;;;;;;13.41;84.33;101420.81;3577886;40;20071;-59
2022/10/30 07:14:41;;;;;;;17.60;9.65;;;;;;;13.47;84.44;101428.50;3578613;40;20287;-60
2022/10/30 07:17:07;;;;;;;13.75;8.55;;;;;;;13.51;83.86;101424.66;3581154;40;20357;-59
2022/10/30 07:19:32;;;;;;;17.10;8.25;;;;;;;13.55;83.95;101426.19;3579868;40;20280;-59
2022/10/30 07:21:59;;;;;;;19.30;8.43;;;;;;;13.61;83.95;101428.50;3577403;40;20052;-59
2022/10/30 07:24:25;;;;;;;15.77;8.25;;;;;;;13.64;83.69;101422.91;3578497;40;20154;-60
2022/10/30 07:26:50;;;;;;;16.48;8.63;;;;;;;13.74;83.54;101428.56;3577603;40;20376;-59
2022/10/30 07:29:16;;;;;;;20.13;8.25;;;;;;;13.82;82.92;101423.50;3579700;40;20062;-60
2022/10/30 07:31:42;;;;;;;11.90;8.25;;;;;;;13.89;82.56;101418.56;3578473;40;20048;-59
2022/10/30 07:34:08;;;;;;;15.05;7.97;;;;;;;13.98;82.96;101420.66;3581309;40;20052;-59
2022/10/30 07:36:33;;;;;;;20.70;7.90;;;;;;;14.07;82.08;101430.84;3580375;40;21935;-59
2022/10/30 07:38:59;;;;;;;16.35;8.35;;;;;;;14.14;82.05;101432.19;3582383;40;20055;-59
2022/10/30 07:41:24;;;;;;;14.75;8.15;;;;;;;14.23;81.29;101440.66;3578523;40;20121;-59
2022/10/30 07:43:50;;;;;;;15.18;8.15;;;;;;;14.34;81.07;101428.16;3580125;40;20370;-59
2022/10/30 07:46:15;;;;;;;12.73;8.00;;;;;;;14.45;81.51;101429.25;3578735;40;20052;-58
2022/10/30 07:48:41;;;;;;;12.98;7.75;;;;;;;14.49;80.70;101414.53;3576427;40;20068;-59
2022/10/30 07:51:07;;;;;;;16.00;7.63;;;;;;;14.67;80.72;101420.53;3577080;40;20056;-58
2022/10/30 07:53:32;;;;;;;12.57;8.15;;;;;;;14.78;80.82;101420.66;3579274;40;20166;-59
2022/10/30 07:55:58;;;;;;;13.68;7.70;;;;;;;14.85;80.03;101430.09;3577300;40;20083;-59
2022/10/30 07:58:24;;;;;;;14.60;7.85;;;;;;;14.94;79.10;101426.75;3578067;40;20080;-59
2022/10/30 08:00:49;;;;;;;17.67;7.75;;;;;;;14.98;79.51;101416.56;3578610;40;20052;-58
2022/10/30 08:03:15;;;;;;;14.20;7.75;;;;;;;15.23;79.48;101426.50;3577555;40;20059;-59
2022/10/30 08:05:40;;;;;;;16.83;8.07;;;;;;;15.39;78.18;101432.53;3580786;40;20080;-58
2022/10/30 08:08:07;;;;;;;11.43;7.75;;;;;;;15.56;78.29;101434.88;3580108;40;20072;-57
2022/10/30 08:10:34;;;;;;;13.48;6.97;;;;;;;15.73;77.13;101430.09;3574847;40;20102;-59
2022/10/30 08:13:01;;;;;;;13.38;7.20;;;;;;;15.88;75.88;101418.09;3577495;40;20137;-57
2022/10/30 08:15:26;;;;;;;15.23;6.65;;;;;;;16.05;75.51;101410.53;3581283;40;20067;-59
2022/10/30 08:17:52;;;;;;;14.30;6.80;;;;;;;16.18;74.98;101404.09;3579961;40;20053;-59
2022/10/30 08:20:22;;;;;;;12.23;6.28;;;;;;;16.38;74.40;101415.28;3577659;40;20075;-59
2022/10/30 08:22:50;;;;;;;14.57;7.47;;;;;;;16.09;73.62;101344.25;3574346;40;20040;-57
2022/10/30 08:25:20;;;;;;;16.52;6.50;;;;;;;16.75;74.00;101420.56;3579076;40;20055;-59
2022/10/30 08:28:00;;;;;;;14.65;6.53;;;;;;;16.96;72.07;101432.47;3578182;40;20049;-59
2022/10/30 08:30:36;;;;;;;11.45;6.18;;;;;;;17.06;70.85;101432.59;3577535;40;20391;-59
2022/10/30 08:33:06;;;;;;;11.73;5.80;;;;;;;17.21;71.29;101442.25;3577631;40;20045;-59
2022/10/30 08:35:32;;;;;;;20.98;6.70;;;;;;;17.32;69.90;101442.25;3577344;40;20063;-60
2022/10/30 08:38:01;;;;;;;11.75;6.00;;;;;;;17.44;70.29;101442.25;3578841;40;20048;-59
2022/10/30 08:40:28;;;;;;;10.88;5.80;;;;;;;17.43;70.06;101419.63;3577483;40;20118;-58
2022/10/30 08:42:56;;;;;;;10.50;6.82;;;;;;;17.54;69.72;101426.94;3579419;40;20122;-59
2022/10/30 08:45:24;;;;;;;13.82;6.03;;;;;;;17.58;68.76;101431.97;3577711;40;20072;-59
2022/10/30 08:47:58;;;;;;;14.55;6.45;;;;;;;17.72;69.48;101436.28;3567322;40;20056;-58
2022/10/30 08:50:23;;;;;;;12.85;5.90;;;;;;;17.89;68.29;101436.75;3575698;40;20072;-58
2022/10/30 08:52:49;;;;;;;12.88;5.88;;;;;;;18.08;68.17;101426.09;3580578;40;20056;-58
2022/10/30 08:55:15;;;;;;;11.02;5.93;;;;;;;18.26;67.08;101432.69;3579098;40;20052;-58
2022/10/30 08:57:40;;;;;;;10.63;5.72;;;;;;;18.36;66.80;101413.72;3578576;40;20100;-58
2022/10/30 09:00:07;;;;;;;14.43;6.00;;;;;;;18.68;65.13;101437.31;3579187;40;20052;-58
2022/10/30 09:02:38;;;;;;;13.27;6.50;;;;;;;18.87;63.73;101433.88;3579735;40;20051;-59
2022/10/30 09:05:06;;;;;;;11.85;5.72;;;;;;;19.13;64.78;101428.91;3579774;40;20051;-57
2022/10/30 09:07:32;;;;;;;9.85;5.32;;;;;;;19.30;64.36;101416.50;3580304;40;20052;-58
2022/10/30 09:09:57;;;;;;;10.85;6.00;;;;;;;19.57;63.12;101434.94;3580996;40;20117;-57
2022/10/30 09:12:23;;;;;;;10.45;5.68;;;;;;;19.77;62.29;101430.47;3579372;40;20067;-58
2022/10/30 09:14:49;;;;;;;10.90;5.70;;;;;;;19.91;60.88;101409.06;3581211;40;20133;-58
2022/10/30 09:17:14;;;;;;;12.20;5.43;;;;;;;20.16;60.83;101420.47;3577231;40;20071;-60
2022/10/30 09:19:40;;;;;;;15.35;6.05;;;;;;;20.41;60.03;101410.84;3579046;40;20049;-58
2022/10/30 09:22:06;;;;;;;16.48;5.60;;;;;;;20.68;59.43;101412.88;3578485;40;20049;-57
2022/10/30 09:24:32;;;;;;;12.35;5.35;;;;;;;20.89;58.62;101420.84;3579855;40;20067;-58
2022/10/30 09:26:57;;;;;;;16.88;5.18;;;;;;;20.92;58.26;101426.03;3580245;40;20068;-58
2022/10/30 09:29:23;;;;;;;11.57;5.75;;;;;;;20.88;58.14;101421.88;3578721;40;20068;-58
2022/10/30 09:31:49;;;;;;;10.73;6.00;;;;;;;20.80;57.46;101416.28;3577412;40;20476;-57
2022/10/30 09:34:14;;;;;;;14.05;6.28;;;;;;;20.73;58.48;101417.88;3580029;40;20171;-57
2022/10/30 09:36:42;;;;;;;13.20;5.30;;;;;;;20.68;57.67;101412.88;3579232;40;20053;-57
2022/10/30 09:39:10;;;;;;;14.23;5.40;;;;;;;20.73;58.81;101418.72;3579214;40;20045;-58
2022/10/30 09:42:13;;;;;;;11.73;5.15;;;;;;;20.78;59.10;101424.63;3577577;40;20070;-58
2022/10/30 09:45:07;;;;;;;14.00;5.50;;;;;;;20.87;58.55;101428.38;3581052;40;20054;-58
2022/10/30 09:48:18;;;;;;;13.27;5.53;;;;;;;20.38;58.36;101353.78;3566889;40;20093;-58
2022/10/30 09:51:44;;;;;;;9.10;5.25;;;;;;;20.72;58.61;101441.59;3580640;40;20381;-58
2022/10/30 09:55:07;;;;;;;12.38;5.35;;;;;;;20.55;58.32;101451.41;3544612;40;20133;-58
2022/10/30 09:58:04;;;;;;;11.63;5.22;;;;;;;20.45;59.22;101449.63;3578905;40;20380;-59
2022/10/30 10:00:40;;;;;;;12.82;5.18;;;;;;;20.39;59.27;101456.53;3579386;40;20449;-58
2022/10/30 10:03:46;;;;;;;14.48;5.60;;;;;;;20.27;59.33;101447.63;3576743;40;20051;-57
2022/10/30 10:06:19;;;;;;;12.70;5.60;;;;;;;20.20;60.39;101453.78;3578631;40;20059;-57
2022/10/30 10:09:15;;;;;;;11.52;5.28;;;;;;;20.18;60.50;101449.34;3580639;40;20403;-58
2022/10/30 10:11:55;;;;;;;13.82;5.15;;;;;;;20.41;61.64;101439.00;3578233;40;20314;-58
2022/10/30 10:14:30;;;;;;;16.05;5.55;;;;;;;20.72;60.51;101436.16;3578992;40;20060;-58
2022/10/30 10:17:03;;;;;;;11.68;5.22;;;;;;;20.97;59.53;101439.28;3581104;40;20044;-59
2022/10/30 10:19:40;;;;;;;13.95;5.00;;;;;;;21.23;57.49;101439.47;3577962;40;20053;-58
2022/10/30 10:22:25;;;;;;;11.10;5.03;;;;;;;21.47;57.07;101430.75;3579253;40;20185;-58
2022/10/30 10:24:54;;;;;;;10.52;5.47;;;;;;;21.59;56.55;101418.59;3578465;40;20469;-59
2022/10/30 10:27:53;;;;;;;14.88;5.05;;;;;;;21.93;56.23;101442.63;3578996;40;20067;-58
2022/10/30 10:30:22;;;;;;;14.38;5.18;;;;;;;22.11;54.83;101426.22;3578608;40;20060;-58
2022/10/30 10:33:23;;;;;;;12.57;4.97;;;;;;;22.23;54.75;101433.19;3577335;40;20100;-58
2022/10/30 10:36:16;;;;;;;10.55;4.75;;;;;;;22.37;55.19;101426.31;3580225;40;20060;-58
2022/10/30 10:39:03;;;;;;;9.55;4.78;;;;;;;22.50;53.97;101424.03;3577584;40;20087;-58
2022/10/30 10:42:01;;;;;;;9.73;4.55;;;;;;;22.56;52.86;101411.59;3575043;40;20061;-59
2022/10/30 10:44:32;;;;;;;12.18;5.20;;;;;;;22.66;52.44;101420.56;3579326;40;20069;-59
2022/10/30 10:47:52;;;;;;;11.95;5.13;;;;;;;22.50;52.57;101424.03;3578959;40;20055;-59
2022/10/30 10:50:34;;;;;;;13.63;5.10;;;;;;;22.63;53.70;101418.16;3571628;40;20061;-57
2022/10/30 10:53:17;;;;;;;12.68;4.88;;;;;;;22.84;53.85;101417.81;3578975;40;20092;-58
2022/10/30 10:55:53;;;;;;;9.43;4.85;;;;;;;23.00;52.58;101422.56;3579773;40;20068;-59
2022/10/30 10:58:26;;;;;;;14.90;5.13;;;;;;;23.08;52.40;101428.09;3580132;40;20064;-58
2022/10/30 11:00:56;;;;;;;11.20;4.68;;;;;;;23.04;51.51;101433.03;3578525;40;20056;-59
2022/10/30 11:03:42;;;;;;;10.25;4.82;;;;;;;22.98;52.12;101430.09;3578528;40;20064;-58
2022/10/30 11:06:21;;;;;;;11.85;5.15;;;;;;;23.14;52.03;101416.47;3576706;40;20597;-58
2022/10/30 11:08:48;;;;;;;9.45;4.93;;;;;;;23.30;50.76;101422.03;3577565;40;20059;-58
2022/10/30 11:11:14;;;;;;;11.73;5.10;;;;;;;23.37;51.00;101403.94;3555360;40;20048;-57
2022/10/30 11:13:43;;;;;;;14.07;4.50;;;;;;;23.54;51.41;101409.47;3581744;40;20361;-58
2022/10/30 11:16:26;;;;;;;12.57;4.95;;;;;;;23.70;50.72;101412.31;3564173;40;20052;-58
2022/10/30 11:19:01;;;;;;;12.90;5.00;;;;;;;23.88;51.15;101403.09;3581793;40;20332;-58
2022/10/30 11:21:34;;;;;;;13.15;5.00;;;;;;;23.93;50.31;101401.56;3579568;40;20383;-58
2022/10/30 11:23:59;;;;;;;12.48;4.90;;;;;;;23.97;48.48;101396.59;3578113;40;20056;-58
2022/10/30 11:26:32;;;;;;;11.90;4.65;;;;;;;24.04;49.66;101400.38;3575790;40;20056;-57
2022/10/30 11:29:14;;;;;;;11.32;4.45;;;;;;;23.99;49.46;101402.78;3580906;40;20074;-57
2022/10/30 11:31:44;;;;;;;11.90;4.50;;;;;;;23.71;48.91;101372.00;3581621;40;20060;-58
2022/10/30 11:34:16;;;;;;;12.63;4.68;;;;;;;23.88;48.98;101414.06;3580976;40;20055;-59
2022/10/30 11:36:42;;;;;;;13.85;5.03;;;;;;;23.95;49.84;101410.50;3579966;40;20049;-57